AirNav   Everest Fuels
 
 294 users online  

CL35 Warner Springs Gliderport
Warner Springs, California, USA

GOING TO WARNER SPRINGS?


FAA INFORMATION EFFECTIVE 15 AUGUST 2019

Location

FAA Identifier: CL35
Lat/Long: 33-17-04.2100N 116-40-10.7650W
33-17.070167N 116-40.179417W
33.2845028,-116.6696569
(estimated)
Elevation: 2880 ft. / 878 m (estimated)
Variation: 13E (1985)
From city: 2 miles E of WARNER SPRINGS, CA
Time zone: UTC -7 (UTC -8 during Standard Time)
Zip code: 92086

Gliderport Operations

Gliderport use: Private use. Permission required prior to landing
Activation date: 10/1984
Control tower: no
ARTCC: LOS ANGELES CENTER
FSS: SAN DIEGO FLIGHT SERVICE STATION
Attendance: 0900-1700
Wind indicator: yes
Segmented circle: yes
Landing fee: yes

Gliderport Communications

UNICOM: 122.8
WX AWOS-3P at L08 (18 nm E): 126.575 (760-767-3308)
WX ASOS at RNM (19 nm SW): 132.025 (760-789-0736)

Nearby radio navigation aids

VOR radial/distance  VOR name  Freq  Var
JLIr319/9.6JULIAN VORTAC114.0015E
TRMr218/32.8THERMAL VORTAC116.2013E
PSPr186/37.1PALM SPRINGS VORTAC115.5013E
OCNr071/37.6OCEANSIDE VORTAC115.3015E
HDFr125/(39.2)HOMELAND VOR113.4014E

Gliderport Services

Runway Information

Runway 8/26

Dimensions: 3500 x 70 ft. / 1067 x 21 m
Surface: asphalt
RUNWAY 8  RUNWAY 26
Latitude: 33-17.060333N33-17.080000N
Longitude: 116-40.522667W116-39.836167W
Elevation: 2873.0 ft.2914.0 ft.
Traffic pattern: leftleft
Obstructions: none200 ft. hill, 5200 ft. from runway

Gliderport Ownership and Management from official FAA records

Ownership: Privately-owned
Owner: WARNER SPRINGS RANCH RESORT, LLC
31930 HWY 79
WARNER SPRINGS, CA 92086
Phone 760-782-4200
SKY SAILING 31930 HWY 79.
Manager: BRET WILLAT
SKY SAILING 31930 HWY 79
WARNER SPRINGS, CA 92086
Phone 760-782-0404
LEASEE.

Gliderport Operational Statistics

Aircraft based on the field: 80
Single engine airplanes: 10
Gliders airplanes: 70
    

Additional Remarks

FOR CD CTC LOS ANGELES ARTCC AT 661-575-2079.

Instrument Procedures

There are no published instrument procedures at CL35.

Some nearby airports with instrument procedures:

L08 - Borrego Valley Airport (18 nm E)
KRNM - Ramona Airport (19 nm SW)
F70 - French Valley Airport (29 nm NW)
L18 - Fallbrook Community Airpark (29 nm W)
KSEE - Gillespie Field Airport (31 nm SW)
 
Loc | Ops | Rwys | IFR | FBO | Links
Com | Nav | Svcs | Stats | Notes
Area around CL35 (Warner Springs Gliderport)
 
Road maps at: MapQuest Bing Google
 
Aerial photo
WARNING: Photo may not be current or correct
Aerial photo of CL35 (Warner Springs Gliderport)
Photo by Steve Lupinacci
Photo taken 27-May-2008

Do you have a better or more recent aerial photo of Warner Springs Gliderport that you would like to share? If so, please send us your photo.

 
Sectional chart

 
Airport distance calculator
Flying to Warner Springs Gliderport? Find the distance to fly.

From to CL35

Sunrise and sunset
Times for 18-Aug-2019
 Local
(UTC-7)
 Zulu
(UTC)
Morning civil twilight05:4612:46
Sunrise06:1213:12
Sunset19:2902:29
Evening civil twilight19:5502:55

Current date and time
Zulu (UTC)  18-Aug-2019 08:08:50
Local (UTC-7)  18-Aug-2019 01:08:50
 
METAR
KL08 
18nm E 
180755Z AUTO 31008KT 10SM CLR 28/05 A2974 RMK AO2
KRNM 
20nm SW 
180753Z AUTO 27003KT 4SM BR BKN007 12/11 A2991 RMK AO2 SLP114 T01220111 403060122
KF70 
29nm NW 
180755Z AUTO 00000KT 10SM CLR 16/13 A2991 RMK AO1
KL18 
29nm W 
180755Z AUTO 00000KT 10SM SCT010 16/14 A2990 RMK AO2
KSEE 
32nm SW 
180755Z AUTO 24003KT 10SM OVC015 18/15 A2989 RMK AO2
KCRQ 
32nm W 
180753Z AUTO 16003KT 10SM OVC015 19/15 A2988 RMK AO2 SLP117 T01940150 402220183
KTRM 
33nm NE 
180752Z AUTO 32008KT 10SM CLR 31/10 A2966 RMK AO2 SLP047 T03110100 404330200
KPSP 
33nm N 
180753Z AUTO 15005KT 10SM CLR 29/08 A2973 RMK AO2 SLP061 T02890083 404280233 $
KNFG 
33nm W 
180755Z AUTO 05003KT 10SM OVC016 16/13 A2989 RMK AO2 SLP120 T01610128 402440144
KNKX 
34nm SW 
180755Z 00000KT 10SM OVC014 21/15 A2990 RMK AO2 SLP116 T02060150 402670189
TAF
KCRQ 
32nm W 
180520Z 1806/1906 VRB04KT P6SM OVC013 FM181700 VRB04KT P6SM SCT015 FM182000 26008KT P6SM FEW015 FM190000 VRB04KT P6SM SCT012 FM190300 VRB04KT P6SM OVC012
KTRM 
33nm NE 
180520Z 1806/1906 33012G20KT P6SM SKC FM180900 32007KT P6SM SKC FM181900 14007KT P6SM SKC FM190300 33011KT P6SM SKC
KPSP 
33nm N 
180520Z 1806/1906 33011KT P6SM SKC FM180700 VRB04KT P6SM SKC FM190100 33014G22KT P6SM SKC
KNFG 
33nm W 
1803/1903 VRB05KT 9999 SKC QNH2982INS BECMG 1803/1805 VRB05KT 9999 OVC014 QNH2981INS BECMG 1815/1817 22009KT 9999 SKC QNH2981INS AUTOMATED SENSOR METWATCH 1803 TIL 1914 T16/1810Z T24/1821Z
KNKX 
34nm SW 
1803/1903 VRB05KT 9999 SKC QNH2983INS BECMG 1804/1806 VRB05KT 9999 OVC013 QNH2982INS BECMG 1816/1818 27008KT 9999 SKC QNH2982INS T18/1811Z T26/1821Z
NOTAMs
Click for the latest NOTAMs
NOTAMs are issued by the DoD/FAA and will open in a separate window not controlled by AirNav.

 

 
 

Would you like to see your business listed on this page?

 If your business provides an interesting product or service to pilots, flight crews, aircraft, or users of the Warner Springs Gliderport, you should consider listing it here.  To start the listing process, click on the button below
 
Add a business
 

Other Pages about Warner Springs Gliderport

www.agcsc.org/warner_springs_info.html
 
Update a link
 
Copyright © AirNav, LLC. All rights reserved. Privacy Policy  Contact